createdAt,value
2018-10-17T00:00:57.909Z,14.60
2018-10-17T00:06:01.154Z,14.50
2018-10-17T00:11:04.407Z,14.50
2018-10-17T00:16:07.451Z,14.50
2018-10-17T00:21:10.536Z,14.40
2018-10-17T00:26:13.700Z,14.30
2018-10-17T00:31:16.859Z,14.30
2018-10-17T00:36:19.942Z,14.20
2018-10-17T00:41:23.049Z,14.10
2018-10-17T00:46:26.201Z,14.10
2018-10-17T00:51:29.415Z,14.10
2018-10-17T00:56:32.526Z,14.10
2018-10-17T01:01:35.940Z,14.10
2018-10-17T01:06:39.603Z,14.00
2018-10-17T01:11:43.014Z,13.90
2018-10-17T01:16:46.144Z,13.80
2018-10-17T01:21:49.242Z,13.70
2018-10-17T01:26:52.420Z,13.60
2018-10-17T01:31:55.522Z,13.50
2018-10-17T01:36:58.636Z,13.40
2018-10-17T01:42:01.754Z,13.40
2018-10-17T01:47:05.072Z,13.30
2018-10-17T01:52:08.176Z,13.30
2018-10-17T01:57:11.333Z,13.20
2018-10-17T02:02:14.441Z,13.20
2018-10-17T02:07:17.613Z,13.10
2018-10-17T02:12:20.756Z,13.00
2018-10-17T02:17:23.873Z,13.00
2018-10-17T02:22:27.042Z,13.00
2018-10-17T02:27:30.205Z,13.00
2018-10-17T02:32:33.328Z,13.00
2018-10-17T02:37:36.480Z,12.90
2018-10-17T02:42:39.638Z,12.80
2018-10-17T02:47:42.750Z,12.70
2018-10-17T02:52:45.904Z,12.70
2018-10-17T02:57:49.044Z,12.60
2018-10-17T03:02:52.223Z,12.60
2018-10-17T03:07:55.382Z,12.50
2018-10-17T03:12:58.583Z,12.50
2018-10-17T03:18:01.768Z,12.50
2018-10-17T03:23:05.371Z,12.40
2018-10-17T03:28:08.561Z,12.50
2018-10-17T03:33:11.573Z,12.60
2018-10-17T03:38:14.762Z,12.70
2018-10-17T03:43:17.938Z,12.80
2018-10-17T03:48:20.995Z,12.80
2018-10-17T03:53:24.419Z,12.80
2018-10-17T03:58:27.703Z,12.70
2018-10-17T04:03:30.908Z,12.60
2018-10-17T04:08:34.100Z,12.60
2018-10-17T04:13:37.250Z,12.60
2018-10-17T04:18:40.395Z,12.60
2018-10-17T04:23:43.738Z,12.50
2018-10-17T04:28:47.036Z,12.40
2018-10-17T04:33:50.114Z,12.40
2018-10-17T04:38:53.230Z,12.30
2018-10-17T04:43:56.367Z,12.30
2018-10-17T04:48:59.567Z,12.20
2018-10-17T04:54:02.750Z,12.10
2018-10-17T04:59:06.047Z,12.10
2018-10-17T05:04:09.158Z,12.00
2018-10-17T05:09:12.345Z,12.00
2018-10-17T05:14:15.486Z,12.00
2018-10-17T05:19:18.685Z,11.90
2018-10-17T05:24:21.841Z,11.90
2018-10-17T05:29:24.962Z,11.80
2018-10-17T05:34:28.145Z,11.80
2018-10-17T05:39:31.321Z,11.70
2018-10-17T05:44:34.483Z,11.60
2018-10-17T05:49:37.650Z,11.60
2018-10-17T05:54:40.802Z,11.50
2018-10-17T05:59:43.899Z,11.40
2018-10-17T06:04:47.063Z,11.40
2018-10-17T06:09:50.232Z,11.40
2018-10-17T06:14:53.374Z,11.50
2018-10-17T06:19:56.509Z,11.60
2018-10-17T06:24:59.629Z,12.00
2018-10-17T06:30:02.763Z,12.00
2018-10-17T06:35:06.683Z,12.20
2018-10-17T06:40:10.266Z,12.50
2018-10-17T06:45:13.390Z,12.80
2018-10-17T06:50:16.527Z,13.10
2018-10-17T06:55:19.659Z,13.60
2018-10-17T07:00:22.845Z,14.40
2018-10-17T07:05:25.978Z,15.20
2018-10-17T07:10:29.089Z,16.10
2018-10-17T07:15:32.332Z,16.50
2018-10-17T07:20:35.690Z,17.40
2018-10-17T07:25:38.818Z,18.20
2018-10-17T07:30:41.960Z,18.20
2018-10-17T07:35:45.228Z,18.30
2018-10-17T07:40:48.253Z,17.80
2018-10-17T07:45:51.415Z,16.90
2018-10-17T07:50:54.552Z,16.40
2018-10-17T07:55:57.650Z,16.10
2018-10-17T08:01:00.819Z,16.20
2018-10-17T08:06:04.250Z,16.20
2018-10-17T08:11:07.301Z,16.30
2018-10-17T08:16:10.658Z,16.30
2018-10-17T08:21:13.777Z,16.10
2018-10-17T08:26:16.937Z,16.20
2018-10-17T08:31:20.069Z,16.20
2018-10-17T08:36:23.458Z,16.40
2018-10-17T08:41:26.322Z,16.40
2018-10-17T08:46:29.458Z,16.40
2018-10-17T08:51:32.557Z,16.60
2018-10-17T08:56:35.706Z,16.70
2018-10-17T09:01:38.885Z,16.80
2018-10-17T09:06:41.974Z,16.80
2018-10-17T09:11:45.128Z,17.00
2018-10-17T09:16:48.386Z,17.30
2018-10-17T09:21:51.686Z,17.40
2018-10-17T09:26:54.651Z,17.90
2018-10-17T09:31:57.800Z,18.70
2018-10-17T09:37:00.924Z,19.40
2018-10-17T09:42:04.071Z,20.50
2018-10-17T09:47:07.162Z,21.50
2018-10-17T09:52:10.449Z,22.30
2018-10-17T09:57:13.465Z,22.70
2018-10-17T10:02:16.726Z,23.30
2018-10-17T10:07:19.823Z,22.50
2018-10-17T10:12:22.986Z,21.80
2018-10-17T10:17:26.168Z,22.00
2018-10-17T10:22:29.267Z,22.50
2018-10-17T10:27:32.391Z,23.30
2018-10-17T10:32:35.635Z,24.60
2018-10-17T10:37:38.760Z,26.00
2018-10-17T10:42:41.925Z,26.30
2018-10-17T10:47:45.082Z,27.10
2018-10-17T10:52:48.228Z,27.50
2018-10-17T10:57:51.259Z,28.40
2018-10-17T11:02:54.442Z,27.10
2018-10-17T11:07:57.667Z,26.90
2018-10-17T11:13:00.723Z,26.80
2018-10-17T11:18:03.897Z,27.00
2018-10-17T11:23:07.118Z,26.90
2018-10-17T11:28:10.217Z,27.10
2018-10-17T11:33:13.351Z,27.20
2018-10-17T11:38:16.542Z,26.90
2018-10-17T11:43:19.778Z,27.40
2018-10-17T11:48:22.916Z,27.00
2018-10-17T11:53:26.062Z,28.10
2018-10-17T11:58:29.298Z,29.20
2018-10-17T12:03:32.478Z,29.90
2018-10-17T12:08:35.587Z,29.20
2018-10-17T12:13:38.782Z,28.70
2018-10-17T12:23:54.553Z,28.20
2018-10-17T12:28:57.829Z,28.50
2018-10-17T12:34:00.885Z,28.40
2018-10-17T12:39:06.158Z,27.80
2018-10-17T12:44:09.345Z,27.60
2018-10-17T12:49:12.537Z,27.60
2018-10-17T12:54:15.551Z,27.00
2018-10-17T12:59:18.828Z,26.80
2018-10-17T13:04:21.797Z,26.50
2018-10-17T13:09:24.983Z,25.80
2018-10-17T13:14:28.069Z,25.90
2018-10-17T13:19:31.226Z,25.70
2018-10-17T13:24:34.452Z,25.70
2018-10-17T13:29:37.526Z,25.30
2018-10-17T13:34:40.698Z,25.00
2018-10-17T13:39:43.940Z,25.00
2018-10-17T13:44:47.197Z,24.60
2018-10-17T13:49:50.269Z,24.10
2018-10-17T13:54:53.573Z,23.50
2018-10-17T13:59:57.040Z,23.30
2018-10-17T14:05:00.126Z,23.20
2018-10-17T14:10:03.846Z,23.00
2018-10-17T14:15:07.032Z,23.10
2018-10-17T14:20:10.114Z,22.90
2018-10-17T14:25:13.261Z,23.00
2018-10-17T14:30:16.536Z,23.00
2018-10-17T14:35:19.584Z,23.00
2018-10-17T14:40:22.730Z,23.00
2018-10-17T14:45:25.881Z,23.00
2018-10-17T14:50:28.966Z,22.90
2018-10-17T14:55:32.112Z,23.10
2018-10-17T15:00:35.249Z,23.10
2018-10-17T15:05:38.344Z,23.10
2018-10-17T15:10:41.572Z,23.00
2018-10-17T15:15:45.736Z,23.00
2018-10-17T15:20:48.892Z,22.80
2018-10-17T15:25:52.005Z,22.70
2018-10-17T15:30:55.135Z,22.60
2018-10-17T15:35:58.278Z,22.50
2018-10-17T15:41:01.373Z,22.30
2018-10-17T15:46:04.631Z,22.20
2018-10-17T15:51:07.832Z,22.00
2018-10-17T15:56:10.984Z,21.80
2018-10-17T16:01:14.164Z,21.60
2018-10-17T16:06:17.306Z,21.50
2018-10-17T16:11:20.491Z,21.30
2018-10-17T16:16:23.627Z,21.00
2018-10-17T16:21:26.779Z,20.80
2018-10-17T16:26:29.898Z,20.60
2018-10-17T16:31:34.017Z,20.20
2018-10-17T16:36:36.210Z,20.00
2018-10-17T16:41:39.354Z,19.80
2018-10-17T16:46:42.516Z,19.60
2018-10-17T16:51:45.661Z,19.40
2018-10-17T16:56:48.794Z,19.30
2018-10-17T17:01:51.853Z,19.10
2018-10-17T17:06:55.055Z,18.90
2018-10-17T17:11:58.171Z,18.70
2018-10-17T17:17:01.330Z,18.60
2018-10-17T17:22:04.416Z,18.40
2018-10-17T17:27:07.647Z,18.30
2018-10-17T17:32:10.721Z,18.20
2018-10-17T17:37:13.893Z,18.00
2018-10-17T17:42:16.990Z,17.90
2018-10-17T17:47:20.167Z,17.80
2018-10-17T17:52:23.348Z,17.70
2018-10-17T17:57:26.464Z,17.60
2018-10-17T18:02:29.817Z,17.40
2018-10-17T18:07:32.953Z,17.30
2018-10-17T18:12:36.428Z,17.20
2018-10-17T18:17:39.647Z,17.10
2018-10-17T18:22:42.769Z,17.00
2018-10-17T18:27:46.551Z,16.90
2018-10-17T18:32:49.617Z,16.80
2018-10-17T18:37:53.009Z,16.70
2018-10-17T18:42:56.215Z,16.60
2018-10-17T18:47:59.371Z,16.50
2018-10-17T18:53:02.522Z,16.40
2018-10-17T18:58:05.646Z,16.30
2018-10-17T19:03:08.874Z,16.20
2018-10-17T19:08:12.048Z,16.10
2018-10-17T19:13:15.136Z,16.00
2018-10-17T19:18:18.274Z,15.90
2018-10-17T19:23:21.543Z,15.90
2018-10-17T19:28:24.736Z,15.80
2018-10-17T19:33:28.192Z,15.80
2018-10-17T19:38:31.342Z,15.70
2018-10-17T19:43:34.463Z,15.60
2018-10-17T19:48:37.650Z,15.60
2018-10-17T19:53:40.736Z,15.50
2018-10-17T19:58:43.882Z,15.50
2018-10-17T20:03:46.996Z,15.40
2018-10-17T20:08:50.184Z,15.40
2018-10-17T20:13:53.252Z,15.40
2018-10-17T20:18:56.352Z,15.30
2018-10-17T20:23:59.544Z,15.20
2018-10-17T20:29:02.735Z,15.20
2018-10-17T20:34:05.880Z,15.10
2018-10-17T20:39:13.595Z,15.10
2018-10-17T20:44:20.995Z,15.10
2018-10-17T20:49:24.142Z,15.00
2018-10-17T20:54:27.305Z,14.90
2018-10-17T20:59:30.650Z,14.90
2018-10-17T21:04:33.822Z,14.90
2018-10-17T21:09:36.954Z,14.80
2018-10-17T21:14:40.104Z,14.70
2018-10-17T21:19:43.266Z,14.60
2018-10-17T21:24:46.393Z,14.60
2018-10-17T21:29:49.549Z,14.50
2018-10-17T21:34:52.742Z,14.60
2018-10-17T21:39:55.977Z,14.50
2018-10-17T21:44:59.153Z,14.40
2018-10-17T21:50:02.460Z,14.30
2018-10-17T21:55:05.786Z,14.20
2018-10-17T22:00:09.883Z,14.10
2018-10-17T22:05:13.030Z,14.10
2018-10-17T22:10:16.179Z,14.00
2018-10-17T22:15:19.325Z,14.00
2018-10-17T22:20:22.548Z,13.90
2018-10-17T22:25:25.699Z,13.90
2018-10-17T22:30:29.002Z,13.80
2018-10-17T22:35:32.188Z,13.70
2018-10-17T22:40:35.360Z,13.70
2018-10-17T22:45:38.509Z,13.60
2018-10-17T22:50:41.625Z,13.60
2018-10-17T22:55:44.772Z,13.60
2018-10-17T23:00:48.185Z,13.50
2018-10-17T23:05:51.326Z,13.50
2018-10-17T23:10:54.545Z,13.30
2018-10-17T23:15:57.710Z,13.30
2018-10-17T23:21:00.875Z,13.20
2018-10-17T23:26:04.073Z,13.10
2018-10-17T23:31:07.127Z,13.10
2018-10-17T23:36:10.257Z,13.00
2018-10-17T23:41:13.364Z,13.00
2018-10-17T23:46:16.533Z,13.00
2018-10-17T23:51:19.659Z,13.00
2018-10-17T23:56:22.826Z,13.00
